Time;durP1;ratioP1;P1;durP2;ratioP2;P2;SDS_P1;SDS_P2;PMS_P1;PMS_P2;Temp;Humidity;BMP_temperature;BMP_pressure;BME280_temperature;BME280_humidity;BME280_pressure;Samples;Min_cycle;Max_cycle;Signal;HPM_P1;HPM_P2
2021/11/04 00:01:20;;;;;;;19.40;13.23;;;9.20;99.90;;;;;;5044232;28;20424;-73
2021/11/04 00:04:06;;;;;;;15.57;11.13;;;9.20;99.90;;;;;;5052342;28;20550;-73
2021/11/04 00:06:54;;;;;;;15.00;10.67;;;9.20;99.90;;;;;;5050809;28;20412;-73
2021/11/04 00:09:41;;;;;;;22.90;12.70;;;9.20;99.90;;;;;;5051828;28;20949;-73
2021/11/04 00:12:27;;;;;;;19.00;10.60;;;9.20;99.90;;;;;;5052423;28;20435;-73
2021/11/04 00:15:13;;;;;;;12.90;10.20;;;9.20;99.90;;;;;;5052110;28;20443;-73
2021/11/04 00:17:59;;;;;;;13.27;8.83;;;9.20;99.90;;;;;;5043724;28;20435;-73
2021/11/04 00:20:45;;;;;;;15.00;10.97;;;9.20;99.90;;;;;;5029340;28;20424;-73
2021/11/04 00:23:32;;;;;;;12.48;9.68;;;9.20;99.90;;;;;;5032206;28;20973;-73
2021/11/04 00:26:18;;;;;;;14.77;10.40;;;9.30;99.90;;;;;;5032132;28;20206;-73
2021/11/04 00:29:04;;;;;;;14.17;11.00;;;9.30;99.90;;;;;;5037051;28;20793;-73
2021/11/04 00:31:51;;;;;;;14.70;9.73;;;9.30;99.90;;;;;;5035920;28;20432;-73
2021/11/04 00:34:37;;;;;;;9.50;7.97;;;9.30;99.90;;;;;;5051978;28;20833;-73
2021/11/04 00:37:22;;;;;;;9.10;7.20;;;9.10;99.90;;;;;;5051861;28;20471;-73
2021/11/04 00:40:11;;;;;;;9.07;6.43;;;9.10;99.90;;;;;;5051275;28;20428;-73
2021/11/04 00:42:57;;;;;;;7.50;6.70;;;9.10;99.90;;;;;;5051733;28;20440;-73
2021/11/04 00:45:43;;;;;;;11.23;6.13;;;9.20;99.90;;;;;;5051865;28;20486;-73
2021/11/04 00:48:28;;;;;;;11.73;7.70;;;9.20;99.90;;;;;;5051476;28;20429;-73
2021/11/04 00:51:13;;;;;;;8.53;6.43;;;9.20;99.90;;;;;;5051515;28;20630;-73
2021/11/04 00:53:59;;;;;;;9.60;6.23;;;9.20;99.90;;;;;;5011670;28;20437;-73
2021/11/04 00:56:46;;;;;;;7.07;5.13;;;9.20;99.90;;;;;;5011844;28;20469;-73
2021/11/04 00:59:32;;;;;;;10.73;5.57;;;9.10;99.90;;;;;;5034732;28;20713;-73
2021/11/04 01:02:18;;;;;;;7.10;5.73;;;9.10;99.90;;;;;;5047200;28;20943;-73
2021/11/04 01:05:04;;;;;;;9.03;6.37;;;9.10;99.90;;;;;;5051784;28;20550;-73
2021/11/04 01:07:49;;;;;;;7.23;6.00;;;9.10;99.90;;;;;;5049628;28;20491;-73
2021/11/04 01:10:35;;;;;;;8.85;5.93;;;9.00;99.90;;;;;;5051439;28;20427;-73
2021/11/04 01:13:23;;;;;;;12.20;6.47;;;9.00;99.90;;;;;;5051494;28;20228;-73
2021/11/04 01:16:08;;;;;;;8.57;6.00;;;9.00;99.90;;;;;;5051449;28;20996;-73
2021/11/04 01:18:54;;;;;;;13.90;7.10;;;8.90;99.90;;;;;;5050836;28;20419;-73
2021/11/04 01:21:40;;;;;;;10.20;7.17;;;9.00;99.90;;;;;;5051316;28;20424;-73
2021/11/04 01:24:26;;;;;;;7.70;6.23;;;9.00;99.90;;;;;;5051302;28;20463;-73
2021/11/04 01:27:11;;;;;;;8.30;6.97;;;9.10;99.90;;;;;;5051314;28;20435;-73
2021/11/04 01:29:58;;;;;;;10.27;7.50;;;9.00;99.90;;;;;;5040627;28;20436;-73
2021/11/04 01:32:44;;;;;;;6.30;5.30;;;9.00;99.90;;;;;;5050272;28;20423;-73
2021/11/04 01:35:31;;;;;;;7.97;6.57;;;9.00;99.90;;;;;;5051186;28;20419;-73
2021/11/04 01:38:18;;;;;;;9.30;6.70;;;8.90;99.90;;;;;;5050796;28;20427;-73
2021/11/04 01:41:03;;;;;;;11.53;6.53;;;9.00;99.90;;;;;;5051629;28;20534;-73
2021/11/04 01:43:49;;;;;;;9.53;7.83;;;9.10;99.90;;;;;;5051028;28;20803;-73
2021/11/04 01:46:37;;;;;;;13.00;6.30;;;9.20;99.90;;;;;;5051500;28;20394;-73
2021/11/04 01:49:22;;;;;;;10.13;7.53;;;9.20;99.90;;;;;;5050769;28;20621;-73
2021/11/04 01:52:09;;;;;;;10.83;7.90;;;9.10;99.90;;;;;;5034464;28;20428;-73
2021/11/04 01:54:55;;;;;;;11.07;8.00;;;9.20;99.90;;;;;;5031246;28;20429;-73
2021/11/04 01:57:40;;;;;;;10.23;8.10;;;9.10;99.90;;;;;;5031210;28;20830;-73
2021/11/04 02:00:29;;;;;;;11.60;9.60;;;9.10;99.90;;;;;;5035872;28;20424;-73
2021/11/04 02:03:23;;;;;;;22.20;9.75;;;9.10;99.90;;;;;;5050877;28;20568;-73
2021/11/04 02:06:14;;;;;;;10.33;9.23;;;9.10;99.90;;;;;;5054313;28;20283;-73
2021/11/04 02:09:07;;;;;;;12.07;9.47;;;9.20;99.90;;;;;;5011055;28;20786;-73
2021/11/04 02:11:57;;;;;;;13.93;10.03;;;9.20;99.90;;;;;;5013127;28;20422;-73
2021/11/04 02:14:45;;;;;;;12.43;10.33;;;9.20;99.90;;;;;;5014614;28;20404;-73
2021/11/04 02:17:32;;;;;;;11.20;9.20;;;9.20;99.90;;;;;;5032769;28;20451;-73
2021/11/04 02:20:28;;;;;;;9.73;8.43;;;9.10;99.90;;;;;;5034055;28;20898;-73
2021/11/04 02:23:21;;;;;;;14.10;7.03;;;9.00;99.90;;;;;;5034348;28;20432;-73
2021/11/04 02:26:09;;;;;;;7.10;6.40;;;8.80;99.90;;;;;;5034301;28;20490;-73
2021/11/04 02:28:55;;;;;;;11.80;6.65;;;8.70;99.90;;;;;;5038074;28;20439;-73
2021/11/04 02:31:42;;;;;;;7.50;6.27;;;8.60;99.90;;;;;;5045686;28;20259;-73
2021/11/04 02:34:29;;;;;;;9.50;6.40;;;8.60;99.90;;;;;;5054035;28;20498;-73
2021/11/04 02:37:15;;;;;;;9.43;6.10;;;8.60;99.90;;;;;;5054001;28;20557;-73
2021/11/04 02:40:01;;;;;;;5.27;4.20;;;8.70;99.90;;;;;;5053689;28;20924;-73
2021/11/04 02:42:49;;;;;;;5.22;4.40;;;8.70;99.90;;;;;;5053832;28;20793;-73
2021/11/04 02:45:36;;;;;;;4.37;3.53;;;8.60;99.90;;;;;;5054037;28;20300;-73
2021/11/04 02:48:22;;;;;;;5.05;3.92;;;8.60;99.90;;;;;;5053439;28;20424;-73
2021/11/04 02:51:08;;;;;;;4.70;3.87;;;8.60;99.90;;;;;;5034247;28;20229;-73
2021/11/04 02:53:54;;;;;;;5.20;3.20;;;8.60;99.90;;;;;;5033841;28;20491;-73
2021/11/04 02:56:44;;;;;;;9.27;3.40;;;8.50;99.90;;;;;;5033476;28;20495;-73
2021/11/04 02:59:31;;;;;;;6.15;3.40;;;8.50;99.90;;;;;;5041622;28;20212;-73
2021/11/04 03:02:18;;;;;;;3.60;3.07;;;8.40;99.90;;;;;;5049126;28;20680;-73
2021/11/04 03:05:04;;;;;;;5.75;3.42;;;8.40;99.90;;;;;;5053496;28;20412;-73
2021/11/04 03:07:49;;;;;;;5.90;2.73;;;8.50;99.90;;;;;;5051738;28;20196;-73
2021/11/04 03:10:35;;;;;;;5.53;2.53;;;8.50;99.90;;;;;;5053815;28;20475;-73
2021/11/04 03:13:21;;;;;;;4.90;3.30;;;8.60;99.90;;;;;;5052092;28;20444;-73
2021/11/04 03:16:09;;;;;;;7.10;3.47;;;8.70;99.90;;;;;;5053124;28;20395;-73
2021/11/04 03:18:56;;;;;;;10.10;3.10;;;8.70;99.90;;;;;;5052913;28;20466;-73
2021/11/04 03:21:46;;;;;;;4.03;3.00;;;8.80;99.90;;;;;;5053160;28;20535;-73
2021/11/04 03:24:32;;;;;;;6.00;3.33;;;8.70;99.90;;;;;;5053192;28;20439;-73
2021/11/04 03:27:18;;;;;;;4.80;2.97;;;8.70;99.90;;;;;;5053174;28;20482;-73
2021/11/04 03:30:06;;;;;;;3.73;2.50;;;8.70;99.90;;;;;;5041236;28;20404;-73
2021/11/04 03:32:56;;;;;;;4.27;3.00;;;8.70;99.90;;;;;;5013322;28;20412;-73
2021/11/04 03:35:43;;;;;;;4.07;3.03;;;8.60;99.90;;;;;;5013326;28;20813;-73
2021/11/04 03:38:29;;;;;;;3.40;2.43;;;8.40;99.90;;;;;;5012696;28;21038;-73
2021/11/04 03:41:15;;;;;;;5.20;2.80;;;8.40;99.90;;;;;;5013315;28;20425;-73
2021/11/04 03:44:02;;;;;;;4.13;2.77;;;8.40;99.90;;;;;;5013055;28;20978;-73
2021/11/04 03:46:48;;;;;;;7.15;3.10;;;8.30;99.90;;;;;;5013137;28;20997;-73
2021/11/04 03:49:36;;;;;;;3.87;2.70;;;8.30;99.90;;;;;;5030647;28;20213;-73
2021/11/04 03:52:22;;;;;;;3.10;2.33;;;8.40;99.90;;;;;;5032770;28;20424;-73
2021/11/04 03:55:09;;;;;;;3.83;2.70;;;8.40;99.90;;;;;;5032503;28;20420;-73
2021/11/04 03:57:55;;;;;;;3.88;3.03;;;8.30;99.90;;;;;;5012545;28;20469;-73
2021/11/04 04:00:41;;;;;;;3.95;2.80;;;8.20;99.90;;;;;;5042304;28;20221;-73
2021/11/04 04:03:27;;;;;;;3.37;2.93;;;8.30;99.90;;;;;;5052123;28;20299;-73
2021/11/04 04:06:15;;;;;;;3.87;2.73;;;8.40;99.90;;;;;;5051101;28;20440;-73
2021/11/04 04:09:01;;;;;;;4.73;3.13;;;8.40;99.90;;;;;;5051977;28;20398;-73
2021/11/04 04:11:47;;;;;;;5.60;3.28;;;8.40;99.90;;;;;;5050718;28;20419;-72
2021/11/04 04:14:33;;;;;;;4.20;2.97;;;8.30;99.90;;;;;;5052267;28;20225;-73
2021/11/04 04:17:20;;;;;;;3.63;3.10;;;8.40;99.90;;;;;;5052183;28;20629;-73
2021/11/04 04:20:07;;;;;;;5.10;3.35;;;8.40;99.90;;;;;;5051633;28;20425;-73
2021/11/04 04:22:54;;;;;;;6.07;3.25;;;8.50;99.90;;;;;;5052287;28;20256;-73
2021/11/04 04:25:40;;;;;;;13.30;3.47;;;8.50;99.90;;;;;;5052136;28;20320;-73
2021/11/04 04:28:25;;;;;;;5.00;3.03;;;8.50;99.90;;;;;;5045163;28;20421;-73
2021/11/04 04:31:12;;;;;;;4.77;3.37;;;8.60;99.90;;;;;;5043534;28;20452;-73
2021/11/04 04:33:57;;;;;;;4.83;3.40;;;8.30;99.90;;;;;;5052081;28;20908;-73
2021/11/04 04:36:43;;;;;;;3.50;3.20;;;8.30;99.90;;;;;;5051651;28;20857;-73
2021/11/04 04:39:32;;;;;;;7.40;4.33;;;8.30;99.90;;;;;;5051681;28;20423;-73
2021/11/04 04:42:18;;;;;;;4.57;3.37;;;8.20;99.90;;;;;;5051865;28;20420;-72
2021/11/04 04:45:04;;;;;;;6.70;5.10;;;8.10;99.90;;;;;;5052218;28;20398;-73
2021/11/04 04:47:51;;;;;;;5.50;4.20;;;8.10;99.90;;;;;;5035685;28;20198;-73
2021/11/04 04:50:37;;;;;;;6.20;4.63;;;8.10;99.90;;;;;;5031938;28;20201;-73
2021/11/04 04:53:23;;;;;;;6.43;4.85;;;8.10;99.90;;;;;;5031581;28;20864;-73
2021/11/04 04:56:09;;;;;;;10.88;4.50;;;8.10;99.90;;;;;;5031929;28;20291;-73
2021/11/04 04:58:55;;;;;;;7.00;5.20;;;8.10;99.90;;;;;;5035417;28;20201;-73
2021/11/04 05:01:41;;;;;;;6.85;5.70;;;8.10;99.90;;;;;;5043225;28;20204;-72
2021/11/04 05:04:26;;;;;;;7.50;6.13;;;8.10;99.90;;;;;;5066881;22;20298;-70
2021/11/04 05:07:12;;;;;;;8.73;6.32;;;8.10;99.90;;;;;;5050935;28;20558;-70
2021/11/04 05:09:57;;;;;;;15.93;7.25;;;8.10;99.90;;;;;;5051337;28;20259;-70
2021/11/04 05:12:45;;;;;;;9.50;7.53;;;8.10;99.90;;;;;;5050870;28;20247;-70
2021/11/04 05:15:31;;;;;;;11.25;8.82;;;8.00;99.90;;;;;;5031689;28;20451;-69
2021/11/04 05:18:17;;;;;;;9.80;8.80;;;8.00;99.90;;;;;;5031062;28;20639;-70
2021/11/04 05:21:02;;;;;;;11.27;9.32;;;8.00;99.90;;;;;;5031555;28;20205;-70
2021/11/04 05:23:48;;;;;;;12.23;8.53;;;8.20;99.90;;;;;;5031421;28;20225;-70
2021/11/04 05:26:34;;;;;;;9.27;8.37;;;8.20;99.90;;;;;;5031592;28;20421;-70
2021/11/04 05:29:22;;;;;;;10.10;9.00;;;8.20;99.90;;;;;;5038655;28;20436;-70
2021/11/04 05:32:08;;;;;;;12.00;10.10;;;8.20;99.90;;;;;;5039862;28;20419;-70
2021/11/04 05:34:54;;;;;;;12.13;9.90;;;8.30;99.90;;;;;;5051083;28;20506;-70
2021/11/04 05:37:39;;;;;;;10.63;9.53;;;8.30;99.90;;;;;;5051251;28;21102;-70
2021/11/04 05:40:25;;;;;;;10.07;9.07;;;8.30;99.90;;;;;;5055153;28;20424;-70
2021/11/04 05:43:10;;;;;;;9.30;8.07;;;8.20;99.90;;;;;;5055169;28;20204;-70
2021/11/04 05:45:57;;;;;;;13.80;9.43;;;8.20;99.90;;;;;;5025283;28;20460;-70
2021/11/04 05:48:43;;;;;;;11.18;7.85;;;8.20;99.90;;;;;;5014182;28;20447;-70
2021/11/04 05:51:29;;;;;;;9.88;8.88;;;8.10;99.90;;;;;;5015307;28;20261;-70
2021/11/04 05:54:15;;;;;;;9.87;8.30;;;8.10;99.90;;;;;;5015290;28;20226;-70
2021/11/04 05:57:00;;;;;;;8.05;7.25;;;8.00;99.90;;;;;;5015175;28;20930;-70
2021/11/04 05:59:46;;;;;;;15.85;7.53;;;8.10;99.90;;;;;;5039899;28;20201;-70
2021/11/04 06:02:33;;;;;;;9.65;8.32;;;8.10;99.90;;;;;;5052620;28;20678;-70
2021/11/04 06:05:19;;;;;;;9.07;8.18;;;8.30;99.90;;;;;;5054785;28;20229;-70
2021/11/04 06:08:05;;;;;;;11.40;8.23;;;8.30;99.90;;;;;;5053720;28;20734;-70
2021/11/04 06:10:50;;;;;;;9.60;7.30;;;8.40;99.90;;;;;;5054960;28;20443;-70
2021/11/04 06:13:36;;;;;;;12.30;10.10;;;8.30;99.90;;;;;;5053819;28;20451;-70
2021/11/04 06:16:21;;;;;;;11.00;9.87;;;8.20;99.90;;;;;;5054521;28;20477;-70
2021/11/04 06:19:08;;;;;;;11.82;8.68;;;8.20;99.90;;;;;;5054150;28;20521;-70
2021/11/04 06:21:54;;;;;;;13.45;10.20;;;8.30;99.90;;;;;;5054376;28;20729;-70
2021/11/04 06:24:39;;;;;;;9.88;8.85;;;8.20;99.90;;;;;;5054510;28;20714;-70
2021/11/04 06:27:25;;;;;;;11.60;9.17;;;8.30;99.90;;;;;;5054370;28;20201;-70
2021/11/04 06:30:11;;;;;;;10.77;9.67;;;8.20;99.90;;;;;;5036863;28;20560;-70
2021/11/04 06:32:57;;;;;;;10.90;9.10;;;8.00;99.90;;;;;;5014408;28;20529;-70
2021/11/04 06:35:44;;;;;;;11.33;9.63;;;8.00;99.90;;;;;;5014539;28;20202;-70
2021/11/04 06:38:31;;;;;;;15.27;11.07;;;8.00;99.90;;;;;;5014086;28;20472;-70
2021/11/04 06:41:17;;;;;;;13.52;11.80;;;7.90;99.90;;;;;;5014489;28;21042;-70
2021/11/04 06:44:03;;;;;;;16.47;12.90;;;7.90;99.90;;;;;;5021751;28;20233;-70
2021/11/04 06:46:50;;;;;;;17.10;12.20;;;7.90;99.90;;;;;;5034080;28;20417;-70
2021/11/04 06:49:39;;;;;;;14.73;12.70;;;7.80;99.90;;;;;;5033479;28;20421;-70
2021/11/04 06:52:30;;;;;;;16.08;13.27;;;7.90;99.90;;;;;;5034016;28;20444;-70
2021/11/04 06:55:16;;;;;;;16.43;12.10;;;7.90;99.90;;;;;;5033983;28;20225;-70
2021/11/04 06:58:04;;;;;;;17.95;11.45;;;8.00;99.90;;;;;;5033444;28;20464;-70
2021/11/04 07:00:53;;;;;;;15.30;12.33;;;8.10;99.90;;;;;;5033831;28;20280;-70
2021/11/04 07:03:46;;;;;;;13.90;11.17;;;8.20;99.90;;;;;;5033583;28;20985;-70
2021/11/04 07:06:43;;;;;;;16.57;11.40;;;8.10;99.90;;;;;;5032991;28;20416;-70
2021/11/04 07:09:32;;;;;;;14.18;11.20;;;8.10;99.90;;;;;;5033680;28;20421;-70
2021/11/04 07:12:17;;;;;;;14.38;11.02;;;8.20;99.90;;;;;;5033774;28;20329;-70
2021/11/04 07:15:03;;;;;;;17.53;12.80;;;8.20;99.90;;;;;;5033214;28;20409;-70
2021/11/04 07:17:50;;;;;;;12.93;11.00;;;8.10;99.90;;;;;;5033551;28;20781;-70
2021/11/04 07:20:37;;;;;;;15.50;12.48;;;8.20;99.90;;;;;;5033365;28;20276;-69
2021/11/04 07:23:36;;;;;;;15.85;13.38;;;8.30;99.90;;;;;;5033379;28;20241;-70
2021/11/04 07:26:32;;;;;;;15.63;12.98;;;8.20;99.90;;;;;;5033486;28;20703;-70
2021/11/04 07:29:21;;;;;;;13.40;11.13;;;8.20;99.90;;;;;;5040194;28;20193;-70
2021/11/04 07:32:09;;;;;;;13.93;11.83;;;8.30;99.90;;;;;;5041728;28;20535;-70
2021/11/04 07:34:55;;;;;;;18.83;12.27;;;8.20;99.90;;;;;;5022070;28;20636;-70
2021/11/04 07:37:42;;;;;;;16.42;12.57;;;8.20;99.90;;;;;;5012484;28;20461;-70
2021/11/04 07:40:29;;;;;;;19.90;13.32;;;8.20;99.90;;;;;;5013071;28;20302;-70
2021/11/04 07:43:18;;;;;;;22.87;15.83;;;8.10;99.90;;;;;;5025756;28;20285;-70
2021/11/04 07:46:04;;;;;;;21.52;15.90;;;8.00;99.90;;;;;;5032840;28;20424;-70
2021/11/04 07:48:50;;;;;;;24.50;14.93;;;7.90;99.90;;;;;;5032700;28;20682;-70
2021/11/04 07:51:36;;;;;;;26.65;16.55;;;7.90;99.90;;;;;;5032887;28;20402;-70
2021/11/04 07:54:22;;;;;;;27.45;14.77;;;8.00;99.90;;;;;;5033325;28;20221;-70
2021/11/04 07:57:09;;;;;;;30.05;16.83;;;8.00;99.90;;;;;;5032668;28;20224;-70
2021/11/04 07:59:56;;;;;;;19.88;14.73;;;8.00;99.90;;;;;;5040517;28;20296;-69
2021/11/04 08:02:43;;;;;;;21.25;14.15;;;8.10;99.90;;;;;;5050690;28;20204;-69
2021/11/04 08:05:28;;;;;;;22.35;13.85;;;8.10;99.90;;;;;;5052508;28;20224;-69
2021/11/04 08:08:14;;;;;;;18.73;13.48;;;8.10;99.90;;;;;;5051254;28;20260;-69
2021/11/04 08:10:59;;;;;;;23.30;14.93;;;8.20;99.90;;;;;;5052347;28;20204;-70
2021/11/04 08:13:45;;;;;;;22.67;14.10;;;8.10;99.90;;;;;;5052327;28;20291;-69
2021/11/04 08:16:32;;;;;;;21.50;13.05;;;8.10;99.90;;;;;;5052303;28;20200;-69
2021/11/04 08:19:18;;;;;;;16.67;11.95;;;8.00;99.90;;;;;;5051929;28;20267;-69
2021/11/04 08:22:04;;;;;;;16.02;10.25;;;8.00;99.90;;;;;;5052059;28;20211;-69
2021/11/04 08:24:49;;;;;;;17.23;11.77;;;8.00;99.90;;;;;;5052181;28;20601;-70
2021/11/04 08:27:35;;;;;;;22.53;15.37;;;8.00;99.90;;;;;;5052143;28;20200;-70
2021/11/04 08:30:21;;;;;;;30.63;17.45;;;8.00;99.90;;;;;;5040295;28;20866;-69
2021/11/04 08:33:08;;;;;;;29.77;18.23;;;8.00;99.90;;;;;;5012301;28;20293;-69
2021/11/04 08:35:54;;;;;;;33.35;18.88;;;8.10;99.90;;;;;;5012433;28;20233;-69
2021/11/04 08:38:39;;;;;;;41.00;22.90;;;8.10;99.90;;;;;;5012042;28;20782;-69
2021/11/04 08:41:25;;;;;;;41.20;23.30;;;8.00;99.90;;;;;;5021279;28;20292;-69
2021/11/04 08:44:11;;;;;;;40.47;23.43;;;8.00;99.90;;;;;;5031784;28;21028;-69
2021/11/04 08:46:56;;;;;;;40.93;21.83;;;8.00;99.90;;;;;;5031979;28;20426;-69
2021/11/04 08:49:43;;;;;;;40.80;23.63;;;7.90;99.90;;;;;;5031735;28;20416;-69
2021/11/04 08:52:29;;;;;;;36.00;21.42;;;7.90;99.90;;;;;;5031817;28;20200;-70
2021/11/04 08:55:15;;;;;;;34.13;21.80;;;7.90;99.90;;;;;;5031722;28;20240;-69
2021/11/04 08:58:01;;;;;;;43.60;25.25;;;7.90;99.90;;;;;;5031392;28;20303;-69
2021/11/04 09:00:47;;;;;;;44.58;25.35;;;7.80;99.90;;;;;;5042881;28;20603;-69
2021/11/04 09:03:33;;;;;;;46.90;25.27;;;7.80;99.90;;;;;;5051211;28;20232;-70
2021/11/04 09:06:20;;;;;;;44.38;23.77;;;7.90;99.90;;;;;;5051660;28;20197;-70
2021/11/04 09:09:06;;;;;;;46.00;24.90;;;7.90;99.90;;;;;;5051427;28;20674;-69
2021/11/04 09:11:52;;;;;;;49.97;26.00;;;8.00;99.90;;;;;;5050405;28;20205;-69
2021/11/04 09:14:38;;;;;;;53.15;29.08;;;7.90;99.90;;;;;;5054595;28;20219;-70
2021/11/04 09:17:24;;;;;;;50.08;29.20;;;8.10;99.90;;;;;;5055771;28;20582;-70
2021/11/04 09:20:12;;;;;;;52.60;28.80;;;8.10;99.90;;;;;;5055202;28;20242;-69
2021/11/04 09:22:59;;;;;;;50.58;28.38;;;8.10;99.90;;;;;;5038348;28;20444;-70
2021/11/04 09:25:45;;;;;;;58.15;33.55;;;8.10;99.90;;;;;;5014118;28;20276;-70
2021/11/04 09:28:31;;;;;;;49.25;27.40;;;8.20;99.90;;;;;;5021975;28;20212;-69
2021/11/04 09:31:17;;;;;;;45.80;25.20;;;8.20;99.90;;;;;;5043304;28;20620;-70
2021/11/04 09:34:04;;;;;;;39.20;22.80;;;8.20;99.90;;;;;;5035355;28;20510;-70
2021/11/04 09:36:50;;;;;;;46.95;26.63;;;8.30;99.90;;;;;;5035345;28;20427;-70
2021/11/04 09:39:37;;;;;;;42.87;26.47;;;8.30;99.90;;;;;;5029470;28;20711;-70
2021/11/04 09:42:24;;;;;;;47.63;25.65;;;8.30;99.90;;;;;;5015526;28;20799;-69
2021/11/04 09:45:10;;;;;;;43.47;27.17;;;8.30;99.90;;;;;;5015225;28;21022;-70
2021/11/04 09:47:56;;;;;;;61.20;29.30;;;8.30;99.90;;;;;;5015379;28;20417;-69
2021/11/04 09:50:43;;;;;;;49.93;27.83;;;8.20;99.90;;;;;;5015609;28;20500;-69
2021/11/04 09:53:29;;;;;;;50.13;28.02;;;8.10;99.90;;;;;;5015219;28;20441;-69
2021/11/04 09:56:16;;;;;;;49.40;27.45;;;8.10;99.90;;;;;;5015148;28;20284;-70
2021/11/04 09:59:02;;;;;;;55.05;24.80;;;8.00;99.90;;;;;;5030798;28;20350;-69
2021/11/04 10:01:49;;;;;;;49.78;27.08;;;7.90;99.90;;;;;;5046300;28;20209;-70
2021/11/04 10:04:38;;;;;;;45.50;25.05;;;7.80;99.90;;;;;;5054650;28;20251;-69
2021/11/04 10:07:24;;;;;;;50.67;27.45;;;7.90;99.90;;;;;;5054426;28;20200;-69
2021/11/04 10:10:11;;;;;;;46.30;26.38;;;7.90;99.90;;;;;;5054336;28;20204;-69
2021/11/04 10:13:00;;;;;;;42.90;25.05;;;7.90;99.90;;;;;;5053529;28;20721;-70
2021/11/04 10:15:55;;;;;;;50.45;27.20;;;7.90;99.90;;;;;;5054679;28;20221;-70
2021/11/04 10:18:42;;;;;;;48.75;27.58;;;7.90;99.90;;;;;;5054437;28;20689;-70
2021/11/04 10:21:30;;;;;;;55.08;29.52;;;8.00;99.90;;;;;;5054427;28;20216;-70
2021/11/04 10:24:18;;;;;;;41.37;24.17;;;8.10;99.90;;;;;;5054210;28;20784;-70
2021/11/04 10:27:04;;;;;;;45.10;24.77;;;8.20;99.90;;;;;;5054077;28;20428;-70
2021/11/04 10:29:51;;;;;;;45.35;24.65;;;8.20;99.90;;;;;;5044844;28;20198;-69
2021/11/04 10:32:38;;;;;;;48.15;27.48;;;8.10;99.90;;;;;;5052294;28;20315;-70
2021/11/04 10:35:32;;;;;;;55.00;25.52;;;8.10;99.90;;;;;;5054238;28;20220;-70
2021/11/04 10:38:18;;;;;;;51.60;26.65;;;8.20;99.90;;;;;;5047177;28;20209;-70
2021/11/04 10:41:05;;;;;;;45.42;23.52;;;8.30;99.90;;;;;;5034170;28;20205;-70
2021/11/04 10:43:54;;;;;;;44.80;26.35;;;8.30;99.90;;;;;;5034085;28;20232;-69
2021/11/04 10:46:46;;;;;;;45.83;25.15;;;8.20;99.90;;;;;;5034123;28;20574;-70
2021/11/04 10:49:42;;;;;;;45.38;22.75;;;8.10;99.90;;;;;;5033648;28;20198;-70
2021/11/04 10:52:29;;;;;;;49.50;25.38;;;8.10;99.90;;;;;;5034069;28;20262;-70
2021/11/04 10:55:14;;;;;;;40.03;21.83;;;8.20;99.90;;;;;;5033942;28;20250;-70
2021/11/04 10:58:05;;;;;;;38.03;20.85;;;8.20;99.90;;;;;;5033535;28;20574;-70
2021/11/04 11:00:51;;;;;;;42.40;22.08;;;8.10;99.90;;;;;;5034145;28;20217;-70
2021/11/04 11:03:38;;;;;;;44.20;22.55;;;8.20;99.90;;;;;;5070968;22;20254;-76
2021/11/04 11:06:24;;;;;;;42.95;20.92;;;8.20;99.90;;;;;;5093999;28;20563;-76
2021/11/04 11:09:13;;;;;;;39.03;21.10;;;8.20;99.90;;;;;;5093374;28;20662;-76
2021/11/04 11:12:00;;;;;;;43.33;21.42;;;8.10;99.90;;;;;;5079348;28;20462;-76
2021/11/04 11:14:45;;;;;;;37.63;21.60;;;8.20;99.90;;;;;;5071487;28;20219;-76
2021/11/04 11:17:32;;;;;;;39.33;22.63;;;8.30;99.90;;;;;;5073560;28;20204;-76
2021/11/04 11:20:19;;;;;;;36.90;20.90;;;8.30;99.90;;;;;;5072776;28;20448;-76
2021/11/04 11:23:04;;;;;;;33.77;20.17;;;8.40;99.90;;;;;;5073235;28;20195;-76
2021/11/04 11:25:52;;;;;;;35.73;19.63;;;8.40;99.90;;;;;;5073344;28;20399;-76
2021/11/04 11:28:39;;;;;;;33.13;18.70;;;8.50;99.90;;;;;;5080428;28;20405;-76
2021/11/04 11:31:27;;;;;;;34.13;20.13;;;8.60;99.90;;;;;;5093085;28;20541;-76
2021/11/04 11:34:27;;;;;;;38.60;19.20;;;8.60;99.90;;;;;;5093333;28;20416;-75
2021/11/04 11:37:17;;;;;;;29.45;18.50;;;8.60;99.90;;;;;;5083547;28;20430;-76
2021/11/04 11:40:12;;;;;;;30.63;18.40;;;8.70;99.90;;;;;;5072741;28;20633;-76
2021/11/04 11:43:03;;;;;;;31.83;17.97;;;8.70;99.90;;;;;;5073040;28;20558;-76
2021/11/04 11:46:03;;;;;;;23.80;14.63;;;8.80;99.90;;;;;;5072719;28;20398;-76
2021/11/04 11:49:16;;;;;;;27.73;16.20;;;8.70;99.90;;;;;;5072482;28;20975;-76
2021/11/04 11:52:02;;;;;;;29.00;16.17;;;8.80;99.90;;;;;;5072612;28;20588;-76
2021/11/04 11:55:09;;;;;;;22.93;14.67;;;8.80;99.90;;;;;;5072628;28;20224;-75
2021/11/04 11:58:24;;;;;;;24.57;15.80;;;8.90;99.90;;;;;;5074097;28;20423;-76
2021/11/04 12:01:12;;;;;;;23.77;13.60;;;8.90;99.90;;;;;;5086953;28;20584;-76
2021/11/04 12:04:00;;;;;;;26.67;13.90;;;9.10;99.90;;;;;;5092606;28;20453;-76
2021/11/04 12:06:48;;;;;;;22.00;14.00;;;9.10;99.90;;;;;;5090920;28;20423;-76
2021/11/04 12:09:43;;;;;;;22.20;13.00;;;9.20;99.90;;;;;;5092378;28;20863;-76
2021/11/04 12:12:48;;;;;;;20.03;12.20;;;9.20;99.90;;;;;;5091148;28;20464;-76
2021/11/04 12:16:11;;;;;;;19.03;12.80;;;9.00;99.90;;;;;;5092641;28;20557;-76
2021/11/04 12:18:59;;;;;;;17.67;11.93;;;8.80;99.90;;;;;;5092020;28;20474;-76
2021/11/04 12:21:46;;;;;;;17.77;11.50;;;8.80;99.90;;;;;;5092266;28;20471;-76
2021/11/04 12:24:31;;;;;;;18.80;12.60;;;8.80;99.90;;;;;;5092542;28;20442;-76
2021/11/04 12:27:18;;;;;;;18.00;12.03;;;8.80;99.90;;;;;;5092460;28;20419;-76
2021/11/04 12:30:16;;;;;;;18.60;12.13;;;8.70;99.90;;;;;;5091837;28;20534;-76
2021/11/04 12:33:03;;;;;;;19.20;12.07;;;8.80;99.90;;;;;;5072101;28;20263;-76
2021/11/04 12:35:51;;;;;;;16.08;11.73;;;8.80;99.90;;;;;;5081633;28;20441;-76
2021/11/04 12:38:42;;;;;;;17.77;12.35;;;8.80;99.90;;;;;;5091748;28;20321;-76
2021/11/04 12:41:28;;;;;;;19.10;11.93;;;8.80;99.90;;;;;;5092331;28;20204;-76
2021/11/04 12:44:14;;;;;;;21.40;12.10;;;8.80;99.90;;;;;;5091845;28;21142;-76
2021/11/04 12:47:02;;;;;;;19.40;12.93;;;8.80;99.90;;;;;;5092092;28;20492;-76
2021/11/04 12:49:48;;;;;;;13.93;10.13;;;8.80;99.90;;;;;;5091146;28;20401;-76
2021/11/04 12:52:34;;;;;;;17.83;10.53;;;8.80;99.90;;;;;;5091868;28;20230;-76
2021/11/04 12:55:23;;;;;;;16.20;10.38;;;8.80;99.90;;;;;;5091953;28;20446;-76
2021/11/04 12:58:11;;;;;;;18.65;12.15;;;8.80;99.90;;;;;;5091629;28;20262;-76
2021/11/04 13:01:02;;;;;;;15.48;10.10;;;8.90;99.90;;;;;;5068833;28;20589;-76
2021/11/04 13:03:49;;;;;;;16.60;11.63;;;8.90;99.90;;;;;;5070124;28;20224;-76
2021/11/04 13:06:54;;;;;;;21.58;11.98;;;8.90;99.90;;;;;;5070144;28;20743;-76
2021/11/04 13:09:51;;;;;;;25.00;12.13;;;9.00;99.90;;;;;;5071013;28;20565;-76
2021/11/04 13:12:41;;;;;;;18.90;10.10;;;9.00;99.90;;;;;;5070579;28;20207;-76
2021/11/04 13:15:28;;;;;;;21.88;11.90;;;9.00;99.90;;;;;;5071509;28;20617;-76
2021/11/04 13:18:14;;;;;;;15.30;10.70;;;9.00;99.90;;;;;;5071178;28;20204;-76
2021/11/04 13:21:01;;;;;;;19.30;11.27;;;9.10;99.90;;;;;;5071259;28;20462;-76
2021/11/04 13:23:48;;;;;;;15.23;9.90;;;9.20;99.90;;;;;;5071477;28;20438;-76
2021/11/04 13:26:33;;;;;;;14.97;9.93;;;9.20;99.90;;;;;;5071436;28;20473;-76
2021/11/04 13:29:19;;;;;;;16.30;10.30;;;9.20;99.90;;;;;;5084439;28;20401;-76
2021/11/04 13:32:09;;;;;;;14.97;10.43;;;9.20;99.90;;;;;;5085161;28;20434;-76
2021/11/04 13:34:55;;;;;;;17.60;10.33;;;9.20;99.90;;;;;;5078070;28;20418;-76
2021/11/04 13:37:42;;;;;;;12.87;9.50;;;9.20;99.90;;;;;;5071333;28;20423;-76
2021/11/04 13:40:37;;;;;;;14.33;9.80;;;9.20;99.90;;;;;;5070940;28;20470;-76
2021/11/04 13:43:36;;;;;;;12.50;9.27;;;9.20;99.90;;;;;;5071454;28;21002;-76
2021/11/04 13:46:22;;;;;;;11.80;9.07;;;9.20;99.90;;;;;;5071385;28;20505;-76
2021/11/04 13:49:10;;;;;;;12.37;9.07;;;9.20;99.90;;;;;;5071255;28;20760;-76
2021/11/04 13:51:58;;;;;;;16.13;10.97;;;9.10;99.90;;;;;;5071111;28;20426;-76
2021/11/04 13:54:45;;;;;;;13.50;9.03;;;9.10;99.90;;;;;;5071307;28;20573;-76
2021/11/04 13:57:31;;;;;;;15.43;10.17;;;9.20;99.90;;;;;;5071051;28;20431;-76
2021/11/04 14:00:25;;;;;;;13.67;8.83;;;9.20;99.90;;;;;;5088577;28;20520;-76
2021/11/04 14:03:15;;;;;;;13.97;8.30;;;9.20;99.90;;;;;;5094912;28;20579;-76
2021/11/04 14:06:01;;;;;;;16.93;10.17;;;9.10;99.90;;;;;;5095243;28;20449;-76
2021/11/04 14:08:48;;;;;;;13.53;8.93;;;9.10;99.90;;;;;;5094561;28;20428;-76
2021/11/04 14:11:36;;;;;;;16.00;10.50;;;9.00;99.90;;;;;;5094920;28;20878;-76
2021/11/04 14:14:21;;;;;;;13.90;9.60;;;9.00;99.90;;;;;;5094871;28;20441;-76
2021/11/04 14:17:07;;;;;;;15.17;9.60;;;9.10;99.90;;;;;;5094915;28;20418;-76
2021/11/04 14:19:54;;;;;;;18.23;10.77;;;9.10;99.90;;;;;;5094575;28;20465;-76
2021/11/04 14:22:40;;;;;;;13.07;9.47;;;9.20;99.90;;;;;;5094741;28;20476;-76
2021/11/04 14:25:26;;;;;;;15.70;9.00;;;9.20;99.90;;;;;;5094702;28;20437;-76
2021/11/04 14:28:13;;;;;;;16.87;10.20;;;9.20;99.90;;;;;;5094170;28;20421;-76